createdAt,value
2023-03-18T00:00:31.947Z,152.40
2023-03-18T00:01:21.840Z,150.57
2023-03-18T00:02:12.042Z,156.40
2023-03-18T00:03:02.111Z,156.09
2023-03-18T00:03:52.141Z,155.11
2023-03-18T00:04:42.155Z,153.21
2023-03-18T00:05:32.236Z,153.83
2023-03-18T00:06:22.258Z,147.38
2023-03-18T00:07:12.321Z,152.90
2023-03-18T00:08:02.388Z,147.14
2023-03-18T00:08:52.443Z,146.76
2023-03-18T00:09:42.468Z,149.33
2023-03-18T00:10:32.891Z,147.58
2023-03-18T00:11:22.544Z,152.27
2023-03-18T00:12:12.586Z,153.32
2023-03-18T00:13:02.680Z,151.81
2023-03-18T00:13:52.707Z,154.04
2023-03-18T00:14:42.784Z,153.41
2023-03-18T00:15:32.806Z,157.26
2023-03-18T00:16:22.907Z,153.34
2023-03-18T00:17:12.931Z,149.90
2023-03-18T00:18:03.256Z,148.24
2023-03-18T00:18:53.284Z,151.42
2023-03-18T00:19:43.359Z,144.46
2023-03-18T00:20:33.689Z,144.68
2023-03-18T00:21:23.446Z,147.85
2023-03-18T00:22:13.551Z,152.26
2023-03-18T00:23:03.645Z,147.89
2023-03-18T00:23:53.692Z,139.16
2023-03-18T00:24:43.752Z,135.67
2023-03-18T00:25:33.792Z,135.74
2023-03-18T00:26:23.861Z,136.05
2023-03-18T00:27:13.927Z,137.18
2023-03-18T00:28:04.008Z,138.41
2023-03-18T00:28:54.043Z,136.69
2023-03-18T00:29:44.084Z,142.63
2023-03-18T00:30:34.298Z,144.91
2023-03-18T00:31:24.209Z,144.79
2023-03-18T00:32:14.460Z,141.69
2023-03-18T00:33:04.587Z,134.77
2023-03-18T00:33:54.617Z,136.18
2023-03-18T00:34:44.654Z,133.43
2023-03-18T00:35:34.741Z,134.83
2023-03-18T00:36:24.776Z,137.51
2023-03-18T00:37:14.837Z,138.19
2023-03-18T00:38:04.889Z,139.18
2023-03-18T00:38:54.928Z,141.58
2023-03-18T00:39:44.960Z,137.03
2023-03-18T00:40:34.990Z,139.91
2023-03-18T00:41:25.327Z,137.90
2023-03-18T00:42:15.396Z,138.39
2023-03-18T00:43:05.473Z,138.72
2023-03-18T00:43:55.781Z,136.55
2023-03-18T00:44:45.802Z,135.92
2023-03-18T00:45:35.827Z,133.40
2023-03-18T00:46:26.096Z,135.03
2023-03-18T00:47:15.954Z,139.68
2023-03-18T00:48:06.044Z,145.03
2023-03-18T00:48:56.116Z,144.57
2023-03-18T00:49:46.143Z,144.15
2023-03-18T00:50:36.300Z,143.37
2023-03-18T00:51:26.385Z,147.94
2023-03-18T00:52:16.416Z,150.69
2023-03-18T00:53:06.463Z,140.51
2023-03-18T00:53:56.507Z,143.97
2023-03-18T00:54:46.545Z,148.44
2023-03-18T00:55:36.571Z,146.83
2023-03-18T00:56:26.659Z,141.47
2023-03-18T00:57:16.725Z,145.52
2023-03-18T00:58:06.806Z,147.06
2023-03-18T00:58:56.859Z,148.72
2023-03-18T00:59:46.891Z,150.92
2023-03-18T01:00:36.986Z,150.11
2023-03-18T01:01:27.045Z,145.39
2023-03-18T01:02:17.138Z,138.23
2023-03-18T01:03:07.099Z,137.74
2023-03-18T01:03:57.148Z,137.05
2023-03-18T01:04:47.215Z,136.38
2023-03-18T01:05:37.226Z,141.00
2023-03-18T01:06:27.318Z,137.48
2023-03-18T01:07:17.344Z,142.43
2023-03-18T01:08:07.417Z,144.09
2023-03-18T01:08:57.465Z,146.84
2023-03-18T01:09:47.500Z,149.95
2023-03-18T01:10:37.565Z,149.95
2023-03-18T01:11:27.647Z,148.60
2023-03-18T01:12:17.682Z,141.11
2023-03-18T01:13:08.015Z,139.26
2023-03-18T01:13:58.097Z,137.64
2023-03-18T01:14:48.159Z,133.87
2023-03-18T01:15:38.450Z,129.36
2023-03-18T01:16:28.622Z,137.75
2023-03-18T01:17:18.572Z,139.78
2023-03-18T01:18:08.614Z,136.33
2023-03-18T01:18:58.685Z,142.97
2023-03-18T01:19:48.716Z,128.17
2023-03-18T01:20:38.763Z,124.48
2023-03-18T01:21:28.819Z,127.98
2023-03-18T01:22:18.850Z,127.62
2023-03-18T01:23:08.936Z,125.05
2023-03-18T01:23:58.977Z,129.41
2023-03-18T01:24:49.016Z,128.04
2023-03-18T01:25:39.040Z,132.23
2023-03-18T01:26:29.132Z,131.34
2023-03-18T01:27:19.165Z,131.07
2023-03-18T01:28:09.236Z,121.72
2023-03-18T01:28:59.323Z,114.87
2023-03-18T01:29:49.354Z,108.31
2023-03-18T01:30:39.403Z,105.07
2023-03-18T01:31:29.745Z,107.99
2023-03-18T01:32:19.737Z,111.82
2023-03-18T01:33:09.928Z,113.80
2023-03-18T01:34:00.135Z,113.28
2023-03-18T01:34:50.215Z,113.84
2023-03-18T01:35:40.317Z,109.97
2023-03-18T01:36:30.587Z,100.79
2023-03-18T01:37:20.610Z,107.93
2023-03-18T01:38:10.686Z,100.86
2023-03-18T01:39:00.773Z,98.90
2023-03-18T01:39:50.794Z,102.25
2023-03-18T01:40:40.857Z,103.42
2023-03-18T01:41:30.931Z,109.84
2023-03-18T01:42:20.972Z,108.80
2023-03-18T01:43:11.004Z,107.74
2023-03-18T01:44:01.087Z,107.52
2023-03-18T01:44:51.118Z,107.69
2023-03-18T01:45:41.480Z,109.40
2023-03-18T01:46:31.458Z,105.64
2023-03-18T01:47:21.522Z,105.49
2023-03-18T01:48:11.600Z,108.76
2023-03-18T01:49:01.635Z,110.56
2023-03-18T01:49:51.670Z,101.21
2023-03-18T01:50:41.704Z,95.99
2023-03-18T01:51:31.801Z,99.96
2023-03-18T01:52:21.802Z,104.02
2023-03-18T01:53:11.888Z,104.19
2023-03-18T01:54:01.918Z,109.37
2023-03-18T01:54:51.949Z,114.95
2023-03-18T01:55:42.014Z,110.04
2023-03-18T01:56:32.090Z,103.31
2023-03-18T01:57:22.115Z,102.81
2023-03-18T01:58:12.195Z,98.25
2023-03-18T01:59:02.244Z,106.80
2023-03-18T01:59:52.267Z,108.67
2023-03-18T02:00:42.373Z,108.71
2023-03-18T02:01:32.736Z,115.38
2023-03-18T02:02:22.681Z,113.75
2023-03-18T02:03:12.783Z,109.20
2023-03-18T02:04:02.830Z,105.33
2023-03-18T02:04:52.869Z,99.49
2023-03-18T02:05:42.894Z,100.71
2023-03-18T02:06:32.973Z,95.65
2023-03-18T02:07:23.038Z,101.27
2023-03-18T02:08:13.098Z,96.40
2023-03-18T02:09:03.141Z,95.49
2023-03-18T02:09:53.174Z,96.28
2023-03-18T02:10:43.243Z,93.20
2023-03-18T02:11:33.331Z,96.46
2023-03-18T02:12:23.351Z,93.70
2023-03-18T02:13:13.414Z,93.99
2023-03-18T02:14:03.480Z,89.00
2023-03-18T02:14:53.527Z,88.89
2023-03-18T02:15:43.551Z,87.82
2023-03-18T02:16:33.710Z,88.06
2023-03-18T02:17:23.636Z,88.26
2023-03-18T02:18:13.719Z,89.48
2023-03-18T02:19:03.765Z,82.42
2023-03-18T02:19:53.803Z,87.57
2023-03-18T02:20:43.836Z,82.91
2023-03-18T02:21:33.913Z,83.80
2023-03-18T02:22:23.928Z,86.66
2023-03-18T02:23:14.020Z,88.22
2023-03-18T02:24:04.036Z,84.60
2023-03-18T02:24:54.071Z,85.63
2023-03-18T02:25:44.102Z,86.75
2023-03-18T02:26:34.185Z,84.85
2023-03-18T02:27:24.216Z,83.13
2023-03-18T02:28:14.280Z,86.24
2023-03-18T02:29:04.336Z,86.97
2023-03-18T02:29:54.376Z,85.04
2023-03-18T02:30:44.487Z,83.82
2023-03-18T02:31:34.480Z,83.35
2023-03-18T02:32:24.515Z,80.75
2023-03-18T02:33:14.549Z,78.83
2023-03-18T02:34:04.603Z,80.15
2023-03-18T02:34:54.681Z,80.72
2023-03-18T02:35:44.816Z,76.64
2023-03-18T02:36:34.769Z,87.17
2023-03-18T02:37:24.812Z,83.29
2023-03-18T02:38:14.886Z,84.11
2023-03-18T02:39:04.957Z,81.16
2023-03-18T02:39:54.977Z,82.62
2023-03-18T02:40:45.025Z,80.57
2023-03-18T02:41:35.085Z,77.87
2023-03-18T02:42:25.118Z,76.12
2023-03-18T02:43:15.160Z,76.11
2023-03-18T02:44:05.202Z,76.39
2023-03-18T02:44:55.238Z,80.74
2023-03-18T02:45:45.343Z,81.91
2023-03-18T02:46:35.349Z,77.66
2023-03-18T02:47:25.371Z,78.79
2023-03-18T02:48:15.458Z,74.49
2023-03-18T02:49:05.521Z,71.36
2023-03-18T02:49:55.548Z,79.88
2023-03-18T02:50:45.620Z,81.08
2023-03-18T02:51:35.634Z,82.45
2023-03-18T02:52:25.667Z,81.80
2023-03-18T02:53:15.704Z,79.20
2023-03-18T02:54:05.753Z,79.32
2023-03-18T02:54:55.948Z,81.39
2023-03-18T02:55:45.965Z,83.49
2023-03-18T02:56:36.004Z,84.05
2023-03-18T02:57:26.036Z,88.90
2023-03-18T02:58:16.116Z,90.51
2023-03-18T02:59:06.167Z,83.14
2023-03-18T02:59:56.210Z,78.48
2023-03-18T03:00:46.251Z,77.09
2023-03-18T03:01:36.386Z,78.39
2023-03-18T03:02:26.421Z,74.34
2023-03-18T03:03:16.580Z,77.01
2023-03-18T03:04:06.500Z,75.43
2023-03-18T03:04:56.541Z,81.59
2023-03-18T03:05:46.576Z,81.87
2023-03-18T03:06:36.640Z,74.22
2023-03-18T03:07:26.654Z,73.18
2023-03-18T03:08:16.789Z,71.98
2023-03-18T03:09:06.841Z,72.29
2023-03-18T03:09:56.878Z,73.22
2023-03-18T03:10:46.942Z,74.03
2023-03-18T03:11:36.988Z,66.66
2023-03-18T03:12:27.007Z,73.01
2023-03-18T03:13:17.084Z,73.05
2023-03-18T03:14:07.139Z,75.78
2023-03-18T03:14:57.181Z,76.00
2023-03-18T03:15:47.254Z,76.81
2023-03-18T03:16:37.276Z,78.22
2023-03-18T03:17:27.369Z,78.79
2023-03-18T03:18:17.426Z,74.12
2023-03-18T03:19:07.471Z,72.38
2023-03-18T03:19:57.517Z,67.33
2023-03-18T03:20:47.545Z,67.88
2023-03-18T03:21:37.582Z,66.29
2023-03-18T03:22:27.621Z,71.18
2023-03-18T03:23:17.673Z,72.18
2023-03-18T03:24:07.712Z,67.76
2023-03-18T03:24:57.746Z,75.10
2023-03-18T03:25:47.777Z,82.21
2023-03-18T03:26:37.877Z,81.38
2023-03-18T03:27:27.907Z,77.96
2023-03-18T03:28:17.980Z,80.24
2023-03-18T03:29:08.013Z,81.52
2023-03-18T03:29:58.049Z,81.56
2023-03-18T03:30:48.125Z,75.86
2023-03-18T03:31:38.138Z,79.78
2023-03-18T03:32:28.188Z,75.90
2023-03-18T03:33:18.209Z,81.12
2023-03-18T03:34:08.259Z,84.56
2023-03-18T03:34:58.334Z,84.81
2023-03-18T03:35:48.452Z,80.88
2023-03-18T03:36:38.442Z,78.45
2023-03-18T03:37:28.477Z,83.75
2023-03-18T03:38:18.555Z,82.63
2023-03-18T03:39:08.619Z,79.78
2023-03-18T03:39:58.636Z,75.37
2023-03-18T03:40:48.666Z,77.04
2023-03-18T03:41:38.720Z,77.73
2023-03-18T03:42:28.773Z,77.84
2023-03-18T03:43:18.825Z,68.06
2023-03-18T03:44:08.890Z,72.35
2023-03-18T03:44:58.925Z,74.57
2023-03-18T03:45:48.955Z,67.43
2023-03-18T03:46:39.129Z,68.11
2023-03-18T03:47:29.073Z,67.88
2023-03-18T03:48:19.154Z,78.83
2023-03-18T03:49:09.209Z,72.01
2023-03-18T03:49:59.259Z,67.78
2023-03-18T03:50:49.295Z,67.54
2023-03-18T03:51:39.331Z,63.90
2023-03-18T03:52:29.371Z,62.50
2023-03-18T03:53:19.406Z,62.89
2023-03-18T03:54:09.463Z,62.80
2023-03-18T03:54:59.548Z,68.81
2023-03-18T03:55:49.597Z,67.96
2023-03-18T03:56:39.644Z,70.66
2023-03-18T03:57:29.687Z,78.69
2023-03-18T03:58:19.737Z,83.70
2023-03-18T03:59:09.766Z,86.23
2023-03-18T03:59:59.799Z,84.20
2023-03-18T04:00:49.832Z,84.53
2023-03-18T04:01:39.909Z,88.12
2023-03-18T04:02:29.986Z,82.13
2023-03-18T04:03:20.038Z,80.28
2023-03-18T04:04:10.090Z,82.75
2023-03-18T04:05:00.133Z,77.94
2023-03-18T04:05:50.149Z,84.65
2023-03-18T04:06:40.226Z,82.19
2023-03-18T04:07:30.259Z,87.20
2023-03-18T04:08:20.298Z,87.34
2023-03-18T04:09:10.351Z,93.12
2023-03-18T04:10:00.392Z,100.38
2023-03-18T04:10:50.448Z,106.78
2023-03-18T04:11:40.527Z,106.92
2023-03-18T04:12:30.557Z,110.57
2023-03-18T04:13:20.646Z,114.11
2023-03-18T04:14:10.712Z,110.15
2023-03-18T04:15:00.713Z,113.15
2023-03-18T04:15:50.817Z,109.43
2023-03-18T04:16:40.833Z,110.51
2023-03-18T04:17:30.873Z,107.67
2023-03-18T04:18:20.945Z,105.92
2023-03-18T04:19:11.002Z,102.73
2023-03-18T04:20:01.025Z,100.98
2023-03-18T04:20:51.068Z,102.66
2023-03-18T04:21:41.152Z,98.17
2023-03-18T04:22:31.188Z,93.99
2023-03-18T04:23:21.262Z,92.37
2023-03-18T04:24:11.579Z,89.58
2023-03-18T04:25:01.599Z,89.94
2023-03-18T04:25:51.629Z,86.48
2023-03-18T04:26:41.706Z,82.36
2023-03-18T04:27:31.736Z,75.71
2023-03-18T04:28:21.816Z,75.10
2023-03-18T04:29:11.876Z,72.85
2023-03-18T04:30:01.939Z,76.35
2023-03-18T04:30:51.988Z,84.42
2023-03-18T04:31:42.106Z,79.53
2023-03-18T04:32:32.117Z,80.88
2023-03-18T04:33:22.149Z,80.99
2023-03-18T04:34:12.190Z,77.18
2023-03-18T04:35:02.231Z,76.61
2023-03-18T04:35:52.284Z,73.22
2023-03-18T04:36:42.318Z,71.32
2023-03-18T04:37:32.386Z,69.89
2023-03-18T04:38:22.457Z,71.07
2023-03-18T04:39:12.504Z,70.10
2023-03-18T04:40:02.550Z,73.86
2023-03-18T04:40:52.600Z,73.37
2023-03-18T04:41:42.622Z,64.67
2023-03-18T04:42:32.656Z,69.91
2023-03-18T04:43:22.703Z,74.43
2023-03-18T04:44:12.786Z,67.32
2023-03-18T04:45:02.827Z,64.53
2023-03-18T04:45:52.895Z,57.23
2023-03-18T04:46:42.944Z,61.20
2023-03-18T04:47:32.943Z,66.20
2023-03-18T04:48:23.030Z,65.65
2023-03-18T04:49:13.075Z,69.33
2023-03-18T04:50:03.136Z,71.51
2023-03-18T04:50:53.197Z,64.06
2023-03-18T04:51:43.306Z,61.56
2023-03-18T04:52:33.343Z,65.23
2023-03-18T04:53:23.396Z,68.95
2023-03-18T04:54:13.448Z,65.16
2023-03-18T04:55:03.500Z,66.04
2023-03-18T04:55:53.528Z,77.45
2023-03-18T04:56:43.607Z,81.13
2023-03-18T04:57:33.645Z,85.60
2023-03-18T04:58:23.690Z,85.79
2023-03-18T04:59:13.740Z,80.60
2023-03-18T05:00:03.782Z,81.14
2023-03-18T05:00:53.864Z,83.03
2023-03-18T05:01:43.884Z,88.33
2023-03-18T05:02:33.889Z,88.77
2023-03-18T05:03:23.924Z,88.88
2023-03-18T05:04:14.135Z,91.83
2023-03-18T05:05:04.106Z,89.84
2023-03-18T05:05:54.143Z,79.09
2023-03-18T05:06:44.174Z,86.80
2023-03-18T05:07:34.245Z,92.00
2023-03-18T05:08:24.277Z,91.61
2023-03-18T05:09:14.386Z,82.21
2023-03-18T05:10:04.419Z,86.67
2023-03-18T05:10:54.459Z,87.20
2023-03-18T05:11:44.488Z,92.48
2023-03-18T05:12:34.582Z,90.49
2023-03-18T05:13:24.610Z,88.30
2023-03-18T05:14:14.659Z,84.42
2023-03-18T05:15:04.699Z,79.50
2023-03-18T05:15:54.745Z,77.16
2023-03-18T05:16:44.890Z,72.73
2023-03-18T05:17:34.883Z,77.28
2023-03-18T05:18:24.894Z,75.21
2023-03-18T05:19:14.949Z,66.65
2023-03-18T05:20:04.978Z,65.91
2023-03-18T05:20:55.070Z,62.80
2023-03-18T05:21:45.114Z,59.11
2023-03-18T05:22:35.176Z,61.32
2023-03-18T05:23:25.197Z,60.28
2023-03-18T05:24:15.243Z,61.88
2023-03-18T05:25:05.273Z,65.73
2023-03-18T05:25:55.361Z,64.81
2023-03-18T05:26:45.390Z,63.82
2023-03-18T05:27:35.468Z,67.22
2023-03-18T05:28:25.504Z,67.42
2023-03-18T05:29:15.566Z,70.10
2023-03-18T05:30:05.606Z,71.89
2023-03-18T05:30:55.644Z,69.03
2023-03-18T05:31:45.727Z,67.66
2023-03-18T05:32:35.765Z,63.81
2023-03-18T05:33:25.792Z,63.80
2023-03-18T05:34:15.854Z,66.43
2023-03-18T05:35:05.895Z,58.43
2023-03-18T05:35:56.029Z,60.94
2023-03-18T05:36:46.000Z,61.40
2023-03-18T05:37:36.079Z,62.84
2023-03-18T05:38:26.119Z,62.24
2023-03-18T05:39:16.206Z,61.82
2023-03-18T05:40:06.440Z,68.45
2023-03-18T05:40:56.528Z,76.76
2023-03-18T05:41:46.546Z,75.62
2023-03-18T05:42:49.451Z,75.84
2023-03-18T05:43:27.959Z,75.91
2023-03-18T05:44:17.016Z,76.11
2023-03-18T05:45:07.032Z,76.52
2023-03-18T05:45:57.187Z,79.22
2023-03-18T05:46:47.163Z,80.04
2023-03-18T05:47:37.243Z,72.23
2023-03-18T05:48:27.277Z,69.83
2023-03-18T05:49:17.518Z,65.36
2023-03-18T05:50:07.528Z,75.78
2023-03-18T05:50:57.581Z,77.32
2023-03-18T05:51:47.611Z,73.43
2023-03-18T05:52:37.654Z,73.20
2023-03-18T05:53:27.715Z,68.83
2023-03-18T05:54:17.745Z,62.90
2023-03-18T05:55:07.773Z,69.00
2023-03-18T05:55:57.866Z,63.43
2023-03-18T05:56:47.897Z,69.94
2023-03-18T05:57:37.936Z,63.36
2023-03-18T05:58:27.982Z,72.11
2023-03-18T05:59:18.029Z,72.80
2023-03-18T06:00:08.063Z,70.82
2023-03-18T06:00:58.142Z,78.66
2023-03-18T06:01:48.177Z,88.96
2023-03-18T06:02:44.478Z,85.66
2023-03-18T06:03:28.329Z,80.55
2023-03-18T06:04:18.348Z,76.93
2023-03-18T06:05:08.413Z,86.54
2023-03-18T06:05:58.411Z,76.92
2023-03-18T06:06:48.699Z,81.18
2023-03-18T06:07:38.726Z,80.55
2023-03-18T06:08:28.756Z,78.28
2023-03-18T06:09:18.825Z,76.28
2023-03-18T06:10:08.861Z,64.91
2023-03-18T06:10:58.907Z,71.50
2023-03-18T06:11:48.936Z,75.72
2023-03-18T06:12:39.028Z,70.26
2023-03-18T06:13:29.044Z,75.43
2023-03-18T06:14:19.093Z,70.29
2023-03-18T06:15:09.138Z,71.01
2023-03-18T06:15:59.172Z,66.90
2023-03-18T06:16:49.299Z,60.89
2023-03-18T06:17:39.242Z,60.27
2023-03-18T06:18:29.288Z,60.52
2023-03-18T06:19:19.345Z,61.80
2023-03-18T06:20:09.471Z,58.25
2023-03-18T06:20:59.479Z,59.61
2023-03-18T06:21:49.542Z,63.03
2023-03-18T06:22:39.566Z,63.12
2023-03-18T06:23:29.622Z,67.61
2023-03-18T06:24:19.660Z,56.70
2023-03-18T06:25:09.700Z,59.21
2023-03-18T06:25:59.730Z,62.46
2023-03-18T06:26:49.852Z,57.50
2023-03-18T06:27:39.889Z,55.75
2023-03-18T06:28:29.971Z,54.63
2023-03-18T06:29:20.047Z,54.48
2023-03-18T06:30:10.075Z,61.28
2023-03-18T06:31:00.124Z,64.27
2023-03-18T06:31:50.189Z,57.68
2023-03-18T06:32:40.513Z,53.63
2023-03-18T06:33:30.307Z,56.98
2023-03-18T06:34:20.358Z,60.27
2023-03-18T06:35:10.395Z,56.82
2023-03-18T06:36:00.493Z,54.04
2023-03-18T06:36:50.501Z,52.27
2023-03-18T06:37:40.509Z,57.35
2023-03-18T06:38:30.578Z,55.99
2023-03-18T06:39:20.638Z,55.05
2023-03-18T06:40:10.707Z,55.06
2023-03-18T06:41:00.768Z,51.94
2023-03-18T06:41:50.848Z,59.58
2023-03-18T06:42:40.881Z,63.88
2023-03-18T06:43:30.927Z,61.85
2023-03-18T06:44:20.990Z,63.81
2023-03-18T06:45:11.046Z,60.17
2023-03-18T06:46:01.069Z,55.60
2023-03-18T06:46:51.185Z,52.69
2023-03-18T06:47:41.245Z,45.23
2023-03-18T06:48:31.260Z,48.82
2023-03-18T06:49:21.305Z,51.31
2023-03-18T06:50:11.379Z,53.52
2023-03-18T06:51:01.389Z,52.32
2023-03-18T06:51:51.463Z,53.03
2023-03-18T06:52:41.522Z,56.33
2023-03-18T06:53:31.582Z,49.85
2023-03-18T06:54:21.641Z,56.33
2023-03-18T06:55:11.669Z,51.71
2023-03-18T06:56:01.697Z,54.43
2023-03-18T06:56:51.776Z,60.80
2023-03-18T06:57:41.810Z,54.29
2023-03-18T06:58:31.847Z,54.84
2023-03-18T06:59:21.894Z,53.17
2023-03-18T07:00:12.000Z,47.31
2023-03-18T07:01:02.089Z,49.46
2023-03-18T07:01:52.203Z,46.85
2023-03-18T07:02:42.119Z,48.19
2023-03-18T07:03:32.190Z,50.38
2023-03-18T07:04:22.239Z,53.10
2023-03-18T07:05:12.304Z,61.89
2023-03-18T07:06:02.351Z,71.16
2023-03-18T07:06:52.380Z,64.64
2023-03-18T07:07:42.430Z,55.87
2023-03-18T07:08:32.585Z,51.36
2023-03-18T07:09:22.555Z,51.84
2023-03-18T07:10:12.580Z,55.23
2023-03-18T07:11:02.611Z,57.60
2023-03-18T07:11:52.652Z,54.33
2023-03-18T07:12:42.686Z,61.30
2023-03-18T07:13:32.770Z,58.01
2023-03-18T07:14:22.843Z,57.16
2023-03-18T07:15:12.885Z,50.13
2023-03-18T07:16:02.969Z,47.23
2023-03-18T07:16:52.967Z,57.36
2023-03-18T07:17:43.002Z,63.45
2023-03-18T07:18:33.030Z,67.91
2023-03-18T07:19:23.100Z,67.50
2023-03-18T07:20:13.205Z,64.63
2023-03-18T07:21:03.253Z,67.51
2023-03-18T07:21:53.317Z,66.60
2023-03-18T07:22:43.345Z,69.66
2023-03-18T07:23:33.424Z,71.08
2023-03-18T07:24:23.521Z,70.16
2023-03-18T07:25:13.535Z,81.43
2023-03-18T07:26:03.567Z,75.55
2023-03-18T07:26:53.636Z,68.17
2023-03-18T07:27:43.631Z,58.92
2023-03-18T07:28:33.707Z,57.53
2023-03-18T07:29:23.772Z,56.39
2023-03-18T07:30:13.824Z,56.77
2023-03-18T07:31:03.925Z,58.83
2023-03-18T07:31:53.989Z,58.31
2023-03-18T07:32:43.963Z,62.84
2023-03-18T07:33:34.028Z,67.76
2023-03-18T07:34:24.081Z,67.04
2023-03-18T07:35:14.177Z,64.97
2023-03-18T07:36:04.243Z,68.03
2023-03-18T07:36:54.388Z,65.73
2023-03-18T07:37:44.296Z,61.22
2023-03-18T07:38:34.372Z,59.64
2023-03-18T07:39:24.424Z,58.12
2023-03-18T07:40:14.495Z,57.65
2023-03-18T07:41:04.507Z,55.71
2023-03-18T07:41:54.619Z,57.51
2023-03-18T07:42:44.646Z,64.39
2023-03-18T07:43:34.692Z,61.22
2023-03-18T07:44:24.740Z,62.69
2023-03-18T07:45:14.764Z,69.04
2023-03-18T07:46:04.864Z,71.24
2023-03-18T07:46:54.885Z,69.59
2023-03-18T07:47:47.105Z,71.86
2023-03-18T07:48:34.975Z,62.97
2023-03-18T07:49:25.024Z,65.13
2023-03-18T07:50:15.185Z,60.47
2023-03-18T07:51:05.251Z,59.43
2023-03-18T07:51:55.336Z,58.70
2023-03-18T07:52:45.359Z,56.03
2023-03-18T07:53:35.462Z,59.17
2023-03-18T07:54:25.491Z,57.09
2023-03-18T07:55:15.540Z,51.74
2023-03-18T07:56:05.584Z,59.37
2023-03-18T07:56:55.727Z,71.69
2023-03-18T07:57:45.676Z,71.06
2023-03-18T07:58:35.758Z,65.15
2023-03-18T07:59:25.826Z,65.39
2023-03-18T08:00:15.873Z,70.31
2023-03-18T08:01:05.899Z,77.84
2023-03-18T08:01:55.974Z,85.74
2023-03-18T08:02:46.020Z,74.81
2023-03-18T08:03:36.081Z,66.33
2023-03-18T08:04:26.244Z,77.31
2023-03-18T08:05:16.398Z,88.55
2023-03-18T08:06:06.218Z,98.12
2023-03-18T08:06:56.262Z,104.74
2023-03-18T08:07:46.310Z,94.37
2023-03-18T08:08:36.347Z,83.49
2023-03-18T08:09:26.421Z,82.18
2023-03-18T08:10:16.459Z,79.88
2023-03-18T08:11:06.571Z,78.50
2023-03-18T08:11:56.596Z,82.19
2023-03-18T08:12:52.951Z,85.00
2023-03-18T08:13:37.691Z,85.03
2023-03-18T08:14:26.746Z,85.23
2023-03-18T08:15:16.815Z,86.62
2023-03-18T08:16:06.876Z,89.03
2023-03-18T08:16:56.875Z,90.01
2023-03-18T08:17:46.958Z,91.14
2023-03-18T08:18:36.999Z,91.34
2023-03-18T08:19:27.457Z,95.56
2023-03-18T08:20:17.265Z,97.42
2023-03-18T08:21:07.305Z,99.99
2023-03-18T08:21:57.354Z,99.36
2023-03-18T08:22:47.377Z,104.08
2023-03-18T08:23:37.462Z,99.43
2023-03-18T08:24:27.567Z,104.66
2023-03-18T08:25:17.595Z,107.79
2023-03-18T08:26:07.628Z,108.16
2023-03-18T08:26:57.663Z,102.24
2023-03-18T08:27:47.717Z,107.40
2023-03-18T08:28:37.738Z,104.83
2023-03-18T08:29:27.799Z,107.65
2023-03-18T08:30:17.824Z,110.77
2023-03-18T08:31:07.888Z,105.03
2023-03-18T08:31:57.969Z,105.65
2023-03-18T08:32:48.043Z,112.92
2023-03-18T08:33:38.117Z,121.89
2023-03-18T08:34:28.131Z,115.86
2023-03-18T08:35:20.215Z,114.24
2023-03-18T08:36:08.259Z,114.40
2023-03-18T08:36:58.330Z,114.93
2023-03-18T08:37:48.358Z,116.02
2023-03-18T08:38:38.459Z,117.18
2023-03-18T08:39:28.501Z,120.85
2023-03-18T08:40:18.608Z,127.55
2023-03-18T08:41:08.611Z,129.28
2023-03-18T08:41:58.672Z,127.97
2023-03-18T08:42:48.718Z,125.69
2023-03-18T08:43:39.234Z,118.76
2023-03-18T08:44:28.839Z,120.06
2023-03-18T08:45:18.953Z,116.21
2023-03-18T08:46:09.043Z,117.86
2023-03-18T08:46:59.018Z,120.23
2023-03-18T08:47:49.058Z,117.49
2023-03-18T08:48:39.149Z,120.70
2023-03-18T08:49:29.162Z,114.20
2023-03-18T08:50:19.210Z,113.04
2023-03-18T08:51:09.279Z,115.33
2023-03-18T08:51:59.301Z,113.04
2023-03-18T08:52:49.333Z,108.66
2023-03-18T08:53:39.492Z,113.83
2023-03-18T08:54:29.510Z,118.47
2023-03-18T08:55:19.645Z,114.98
2023-03-18T08:56:09.603Z,110.17
2023-03-18T08:56:59.687Z,106.14
2023-03-18T08:57:49.703Z,107.70
2023-03-18T08:58:39.789Z,115.57
2023-03-18T08:59:29.877Z,116.62
2023-03-18T09:00:19.886Z,107.47
2023-03-18T09:01:11.890Z,101.40
2023-03-18T09:01:59.987Z,100.46
2023-03-18T09:02:50.016Z,108.78
2023-03-18T09:03:40.180Z,116.19
2023-03-18T09:04:30.148Z,121.09
2023-03-18T09:05:20.185Z,114.06
2023-03-18T09:06:10.394Z,116.29
2023-03-18T09:07:00.434Z,113.23
2023-03-18T09:07:50.463Z,109.46
2023-03-18T09:08:40.615Z,104.03
2023-03-18T09:09:41.037Z,107.53
2023-03-18T09:10:21.644Z,107.63
2023-03-18T09:11:10.693Z,107.66
2023-03-18T09:12:00.757Z,105.01
2023-03-18T09:12:50.817Z,100.98
2023-03-18T09:13:40.928Z,102.42
2023-03-18T09:14:30.964Z,103.52
2023-03-18T09:15:21.045Z,102.65
2023-03-18T09:16:11.124Z,105.35
2023-03-18T09:17:01.333Z,106.46
2023-03-18T09:18:08.075Z,111.30
2023-03-18T09:18:44.832Z,111.39
2023-03-18T09:19:31.411Z,111.61
2023-03-18T09:20:21.442Z,112.57
2023-03-18T09:21:11.500Z,113.48
2023-03-18T09:22:01.577Z,116.95
2023-03-18T09:22:51.644Z,116.88
2023-03-18T09:23:41.719Z,126.04
2023-03-18T09:24:32.029Z,122.16
2023-03-18T09:25:22.061Z,119.61
2023-03-18T09:26:12.093Z,127.98
2023-03-18T09:27:02.182Z,123.48
2023-03-18T09:27:52.212Z,114.19
2023-03-18T09:28:42.260Z,116.17
2023-03-18T09:29:32.342Z,120.63
2023-03-18T09:30:22.339Z,120.26
2023-03-18T09:31:12.513Z,117.68
2023-03-18T09:32:02.506Z,118.97
2023-03-18T09:32:52.609Z,121.26
2023-03-18T09:33:42.627Z,126.92
2023-03-18T09:34:32.664Z,126.68
2023-03-18T09:35:22.706Z,119.01
2023-03-18T09:36:12.839Z,131.43
2023-03-18T09:37:02.835Z,120.78
2023-03-18T09:37:52.906Z,122.38
2023-03-18T09:38:43.002Z,120.50
2023-03-18T09:39:33.065Z,117.84
2023-03-18T09:40:23.130Z,118.07
2023-03-18T09:41:13.154Z,121.25
2023-03-18T09:42:03.256Z,121.20
2023-03-18T09:42:53.278Z,120.82
2023-03-18T09:43:43.321Z,129.45
2023-03-18T09:44:33.370Z,125.91
2023-03-18T09:45:23.408Z,129.02
2023-03-18T09:46:13.611Z,115.02
2023-03-18T09:47:03.743Z,118.13
2023-03-18T09:47:53.566Z,122.59
2023-03-18T09:48:43.601Z,129.32
2023-03-18T09:49:33.663Z,131.22
2023-03-18T09:50:23.708Z,125.27
2023-03-18T09:51:13.731Z,121.80
2023-03-18T09:52:03.818Z,127.02
2023-03-18T09:52:53.846Z,124.85
2023-03-18T09:53:43.937Z,123.31
2023-03-18T09:54:34.000Z,130.22
2023-03-18T09:55:24.042Z,133.54
2023-03-18T09:56:14.076Z,133.40
2023-03-18T09:57:04.125Z,131.72
2023-03-18T09:57:54.158Z,117.02
2023-03-18T09:58:44.238Z,117.06
2023-03-18T09:59:34.781Z,115.05
2023-03-18T10:00:24.490Z,115.09
2023-03-18T10:01:14.409Z,115.56
2023-03-18T10:02:04.617Z,116.93
2023-03-18T10:02:54.725Z,118.47
2023-03-18T10:03:44.751Z,120.88
2023-03-18T10:04:35.071Z,123.26
2023-03-18T10:05:25.112Z,126.51
2023-03-18T10:06:15.152Z,120.15
2023-03-18T10:07:05.194Z,114.15
2023-03-18T10:07:55.232Z,115.17
2023-03-18T10:08:45.274Z,108.46
2023-03-18T10:09:35.342Z,115.67
2023-03-18T10:10:25.395Z,118.88
2023-03-18T10:11:15.432Z,123.99
2023-03-18T10:12:05.476Z,119.92
2023-03-18T10:12:55.506Z,112.38
2023-03-18T10:13:45.553Z,114.21
2023-03-18T10:14:36.441Z,105.36
2023-03-18T10:15:25.662Z,107.31
2023-03-18T10:16:15.771Z,100.22
2023-03-18T10:17:05.798Z,107.68
2023-03-18T10:17:55.835Z,107.07
2023-03-18T10:18:45.921Z,110.14
2023-03-18T10:19:35.943Z,120.70
2023-03-18T10:20:25.988Z,123.94
2023-03-18T10:21:16.038Z,128.55
2023-03-18T10:22:06.073Z,123.30
2023-03-18T10:22:56.127Z,115.54
2023-03-18T10:23:46.163Z,116.44
2023-03-18T10:24:36.256Z,114.12
2023-03-18T10:25:26.283Z,112.47
2023-03-18T10:26:16.325Z,105.14
2023-03-18T10:27:06.361Z,96.04
2023-03-18T10:27:56.396Z,102.83
2023-03-18T10:28:46.439Z,106.28
2023-03-18T10:29:36.521Z,100.48
2023-03-18T10:30:26.563Z,97.14
2023-03-18T10:31:16.693Z,108.16
2023-03-18T10:32:06.661Z,107.39
2023-03-18T10:32:56.745Z,102.22
2023-03-18T10:33:46.748Z,100.57
2023-03-18T10:34:36.828Z,100.29
2023-03-18T10:35:26.857Z,97.08
2023-03-18T10:36:16.907Z,107.88